Time;durP1;ratioP1;P1;durP2;ratioP2;P2;SDS_P1;SDS_P2;PMS_P1;PMS_P2;Temp;Humidity;BMP_temperature;BMP_pressure;BME280_temperature;BME280_humidity;BME280_pressure;Samples;Min_cycle;Max_cycle;Signal;HPM_P1;HPM_P2
2022/12/01 00:01:58;;;;;;;;;;;;;;;9.84;61.40;102621.16;4956255;28;118844;-67
2022/12/01 00:04:25;;;;;;;;;;;;;;;9.84;61.40;102637.91;4954645;28;124744;-67
2022/12/01 00:06:52;;;;;;;;;;;;;;;9.82;61.33;102629.09;4941393;28;125381;-67
2022/12/01 00:12:05;;;;;;;;;;;;;;;9.82;61.37;102634.41;4961068;28;120145;-67
2022/12/01 00:14:32;;;;;;;;;;;;;;;9.81;61.47;102622.03;4960266;28;126270;-67
2022/12/01 00:16:59;;;;;;;;;;;;;;;9.80;61.41;102633.53;4938116;28;124473;-68
2022/12/01 00:19:26;;;;;;;;;;;;;;;9.79;61.53;102623.84;4938539;28;117511;-68
2022/12/01 00:21:53;;;;;;;;;;;;;;;9.79;61.47;102634.41;4926730;28;119447;-67
2022/12/01 00:24:22;;;;;;;;;;;;;;;9.78;61.38;102637.13;4958520;28;124826;-67
2022/12/01 00:26:49;;;;;;;;;;;;;;;9.77;61.48;102630.06;4938993;28;125018;-67
2022/12/01 00:29:15;;;;;;;;;;;;;;;9.77;61.57;102624.75;4942574;28;119756;-67
2022/12/01 00:31:42;;;;;;;;;;;;;;;9.76;61.56;102623.91;4957633;28;119004;-68
2022/12/01 00:34:27;;;;;;;;;;;;;;;9.75;61.51;102622.13;4943284;28;124093;-67
2022/12/01 00:36:54;;;;;;;;;;;;;;;9.72;61.55;102615.13;4964722;28;127739;-67
2022/12/01 00:39:21;;;;;;;;;;;;;;;9.71;61.46;102616.00;4962844;28;120306;-67
2022/12/01 00:41:48;;;;;;;;;;;;;;;9.70;61.47;102619.56;4937626;28;118766;-67
2022/12/01 00:44:15;;;;;;;;;;;;;;;9.70;61.49;102613.38;4957265;28;122900;-67
2022/12/01 00:46:42;;;;;;;;;;;;;;;9.70;61.56;102618.66;4957746;28;124247;-67
2022/12/01 00:49:12;;;;;;;;;;;;;;;9.71;61.37;102620.44;4942792;28;119753;-68
2022/12/01 00:51:39;;;;;;;;;;;;;;;9.72;61.55;102622.19;4955329;28;119036;-67
2022/12/01 00:54:07;;;;;;;;;;;;;;;9.75;61.52;102622.13;4941489;28;98698;-68
2022/12/01 00:56:34;;;;;;;;;;;;;;;9.75;61.76;102622.13;4959608;28;124035;-67
2022/12/01 00:59:01;;;;;;;;;;;;;;;9.76;61.68;102623.91;4936700;28;120833;-67
2022/12/01 01:01:28;;;;;;;;;;;;;;;9.78;61.55;102618.59;4943791;28;120370;-66
2022/12/01 01:03:56;;;;;;;;;;;;;;;9.78;61.57;102621.25;4947015;28;124328;-68
2022/12/01 01:06:23;;;;;;;;;;;;;;;9.78;61.64;102621.25;4955928;28;123913;-68
2022/12/01 01:08:50;;;;;;;;;;;;;;;9.78;61.52;102626.53;4941704;28;119462;-68
2022/12/01 01:11:16;;;;;;;;;;;;;;;9.79;61.73;102623.84;4957521;28;117736;-67
2022/12/01 01:13:43;;;;;;;;;;;;;;;9.81;61.83;102622.03;4946427;28;124089;-68
2022/12/01 01:16:13;;;;;;;;;;;;;;;9.80;61.57;102636.19;4954729;28;122902;-66
2022/12/01 01:18:40;;;;;;;;;;;;;;;9.81;61.74;102624.69;4946065;28;119761;-68
2022/12/01 01:21:09;;;;;;;;;;;;;;;9.82;61.50;102633.53;4959946;28;119642;-68
2022/12/01 01:23:36;;;;;;;;;;;;;;;9.83;61.55;102636.16;4958490;28;123934;-68
2022/12/01 01:26:06;;;;;;;;;;;;;;;9.82;61.56;102639.69;4955680;28;124804;-67
2022/12/01 01:28:32;;;;;;;;;;;;;;;9.83;61.78;102638.81;4948043;28;119713;-66
2022/12/01 01:31:03;;;;;;;;;;;;;;;9.83;61.50;102633.50;4969390;28;119052;-67
2022/12/01 01:33:30;;;;;;;;;;;;;;;9.83;61.42;102633.50;4943329;28;125151;-67
2022/12/01 01:35:57;;;;;;;;;;;;;;;9.82;61.69;102634.41;4958461;28;124323;-68
2022/12/01 01:38:26;;;;;;;;;;;;;;;9.82;61.51;102639.69;4949267;28;120442;-67
2022/12/01 01:40:53;;;;;;;;;;;;;;;9.81;61.78;102643.22;4967322;28;118673;-67
2022/12/01 01:43:39;;;;;;;;;;;;;;;9.81;61.59;102643.22;4941111;28;125612;-67
2022/12/01 01:46:07;;;;;;;;;;;;;;;9.81;61.78;102642.34;4938699;28;124036;-67
2022/12/01 01:48:35;;;;;;;;;;;;;;;9.81;61.67;102648.50;4965353;28;120575;-68
2022/12/01 01:51:02;;;;;;;;;;;;;;;9.82;61.62;102650.28;4949639;28;119814;-67
2022/12/01 01:53:29;;;;;;;;;;;;;;;9.83;61.66;102652.03;4965266;28;123423;-68
2022/12/01 01:55:57;;;;;;;;;;;;;;;9.82;61.54;102650.28;4959830;28;123604;-67
2022/12/01 01:58:25;;;;;;;;;;;;;;;9.81;61.83;102645.84;4953465;28;120641;-67
2022/12/01 02:00:51;;;;;;;;;;;;;;;9.80;61.69;102636.19;4956789;28;118678;-66
2022/12/01 02:03:19;;;;;;;;;;;;;;;9.84;61.73;102643.19;4964969;28;124197;-67
2022/12/01 02:05:46;;;;;;;;;;;;;;;9.84;61.84;102643.19;4960536;28;124206;-67
2022/12/01 02:08:13;;;;;;;;;;;;;;;9.87;61.92;102648.44;4940834;28;119882;-67
2022/12/01 02:11:18;;;;;;;;;;;;;;;9.86;61.85;102641.41;4961034;28;119670;-67
2022/12/01 02:14:03;;;;;;;;;;;;;;;9.84;61.80;102643.19;4897289;28;124971;-68
2022/12/01 02:16:52;;;;;;;;;;;;;;;9.84;61.83;102652.91;4893914;28;124128;-67
2022/12/01 02:19:19;;;;;;;;;;;;;;;9.83;61.67;102640.56;4943919;28;119823;-67
2022/12/01 02:21:54;;;;;;;;;;;;;;;9.82;61.67;102644.97;4939643;28;120241;-67
2022/12/01 02:24:40;;;;;;;;;;;;;;;9.83;62.04;102641.44;4963126;28;123263;-68
2022/12/01 02:27:18;;;;;;;;;;;;;;;9.83;61.87;102641.44;4955307;28;124359;-67
2022/12/01 02:29:48;;;;;;;;;;;;;;;9.82;61.84;102644.97;4947231;28;120452;-67
2022/12/01 02:32:35;;;;;;;;;;;;;;;9.82;61.90;102644.97;4964981;28;118668;-67
2022/12/01 02:35:22;;;;;;;;;;;;;;;9.83;61.95;102646.75;4959883;28;124252;-67
2022/12/01 02:38:02;;;;;;;;;;;;;;;9.85;62.12;102652.00;4958664;28;123645;-68
2022/12/01 02:40:32;;;;;;;;;;;;;;;9.84;61.84;102642.31;4945219;28;122555;-67
2022/12/01 02:43:04;;;;;;;;;;;;;;;9.84;61.87;102648.47;4959823;28;120042;-67
2022/12/01 02:45:31;;;;;;;;;;;;;;;9.86;61.95;102646.69;4955642;28;124338;-74
2022/12/01 02:48:00;;;;;;;;;;;;;;;9.87;61.88;102645.81;4959280;28;124170;-68
2022/12/01 02:50:30;;;;;;;;;;;;;;;9.86;61.70;102641.41;4947314;28;119937;-68
2022/12/01 02:52:58;;;;;;;;;;;;;;;9.87;61.84;102648.44;4955205;28;119779;-68
2022/12/01 02:55:25;;;;;;;;;;;;;;;9.87;61.87;102648.44;4956394;28;124707;-68
2022/12/01 02:57:52;;;;;;;;;;;;;;;9.88;61.76;102650.19;4945915;28;124759;-68
2022/12/01 03:00:19;;;;;;;;;;;;;;;9.88;61.87;102650.19;4931208;28;121301;-66
2022/12/01 03:02:56;;;;;;;;;;;;;;;9.87;61.71;102648.44;4944149;28;117744;-68
2022/12/01 03:05:27;;;;;;;;;;;;;;;9.87;61.86;102653.75;4943579;28;125173;-68
2022/12/01 03:08:12;;;;;;;;;;;;;;;9.87;61.64;102656.38;4964543;28;124906;-67
2022/12/01 03:10:42;;;;;;;;;;;;;;;9.88;61.83;102654.63;4960543;28;119843;-68
2022/12/01 03:13:18;;;;;;;;;;;;;;;9.91;61.82;102655.44;4948117;28;118775;-68
2022/12/01 03:15:45;;;;;;;;;;;;;;;9.88;61.61;102655.47;4956685;28;124448;-68
2022/12/01 03:18:31;;;;;;;;;;;;;;;9.85;61.59;102658.19;4941706;28;124535;-68
2022/12/01 03:21:04;;;;;;;;;;;;;;;9.83;61.67;102652.03;4964867;28;119663;-68
2022/12/01 03:23:34;;;;;;;;;;;;;;;9.83;61.84;102657.31;4959398;28;119746;-68
2022/12/01 03:26:02;;;;;;;;;;;;;;;9.83;61.96;102657.31;4956399;28;124760;-68
2022/12/01 03:28:32;;;;;;;;;;;;;;;9.84;61.81;102653.78;4940470;28;125012;-68
2022/12/01 03:31:02;;;;;;;;;;;;;;;9.84;61.84;102648.47;4961261;28;121064;-68
2022/12/01 03:33:36;;;;;;;;;;;;;;;9.85;61.81;102658.19;4961149;28;119715;-68
2022/12/01 03:36:09;;;;;;;;;;;;;;;9.86;61.78;102657.28;4959802;28;125220;-68
2022/12/01 03:38:36;;;;;;;;;;;;;;;9.88;61.79;102650.19;4960642;28;122932;-68
2022/12/01 03:41:16;;;;;;;;;;;;;;;9.88;61.77;102650.19;4957020;28;119979;-68
2022/12/01 03:43:46;;;;;;;;;;;;;;;9.88;61.77;102650.19;4952474;28;119698;-68
2022/12/01 03:46:22;;;;;;;;;;;;;;;9.89;61.85;102651.94;4959823;28;122202;-68
2022/12/01 03:48:53;;;;;;;;;;;;;;;9.89;61.58;102645.78;4972964;28;123368;-68
2022/12/01 03:51:22;;;;;;;;;;;;;;;9.87;61.84;102648.44;4969837;28;120142;-68
2022/12/01 03:54:12;;;;;;;;;;;;;;;9.86;61.80;102646.69;4972006;28;119573;-68
2022/12/01 03:56:45;;;;;;;;;;;;;;;9.85;61.63;102649.34;4969047;28;124746;-66
2022/12/01 03:59:13;;;;;;;;;;;;;;;9.82;61.63;102650.28;4963777;28;122339;-67
2022/12/01 04:01:40;;;;;;;;;;;;;;;9.81;61.74;102648.50;4965915;28;120365;-68
2022/12/01 04:04:09;;;;;;;;;;;;;;;9.81;61.69;102645.84;4964805;28;118862;-67
2022/12/01 04:06:36;;;;;;;;;;;;;;;9.81;61.69;102651.16;4938466;28;124955;-66
2022/12/01 04:09:03;;;;;;;;;;;;;;;9.81;61.87;102659.09;4958117;28;125147;-67
2022/12/01 04:14:16;;;;;;;;;;;;;;;9.82;61.81;102666.16;4939767;28;117941;-66
2022/12/01 04:16:43;;;;;;;;;;;;;;;9.80;61.54;102657.34;4955801;28;124513;-66
2022/12/01 04:19:10;;;;;;;;;;;;;;;9.80;61.96;102662.66;4960367;28;124026;-66
2022/12/01 04:21:36;;;;;;;;;;;;;;;9.83;62.01;102661.72;4945001;28;120939;-66
2022/12/01 04:24:04;;;;;;;;;;;;;;;9.82;62.02;102660.84;4955530;28;119609;-66
2022/12/01 04:26:32;;;;;;;;;;;;;;;9.82;61.91;102658.22;4957685;28;124050;-67
2022/12/01 04:28:59;;;;;;;;;;;;;;;9.83;61.68;102662.63;4927495;28;125743;-66
2022/12/01 04:31:27;;;;;;;;;;;;;;;9.82;61.70;102660.84;4964229;28;120163;-67
2022/12/01 04:33:55;;;;;;;;;;;;;;;9.83;62.01;102657.31;4952723;28;118608;-66
2022/12/01 04:36:22;;;;;;;;;;;;;;;9.84;61.66;102658.19;4959937;28;124171;-67
2022/12/01 04:38:49;;;;;;;;;;;;;;;9.83;61.65;102657.31;4937088;28;124172;-66
2022/12/01 04:41:16;;;;;;;;;;;;;;;9.85;61.56;102655.53;4954623;28;119602;-66
2022/12/01 04:43:43;;;;;;;;;;;;;;;9.84;61.60;102648.47;4957956;28;118949;-67
2022/12/01 04:46:10;;;;;;;;;;;;;;;9.83;61.59;102651.13;4964211;28;123489;-66
2022/12/01 04:48:37;;;;;;;;;;;;;;;9.81;61.80;102648.50;4942286;28;124744;-66
2022/12/01 04:51:06;;;;;;;;;;;;;;;9.80;61.64;102651.19;4967138;28;120088;-66
2022/12/01 04:53:34;;;;;;;;;;;;;;;9.80;61.64;102657.34;4948172;28;120957;-66
2022/12/01 04:56:01;;;;;;;;;;;;;;;9.80;61.84;102657.34;4960622;28;124782;-66
2022/12/01 04:58:29;;;;;;;;;;;;;;;9.79;61.76;102660.88;4961886;28;123987;-66
2022/12/01 05:01:07;;;;;;;;;;;;;;;9.78;61.65;102661.78;4948384;28;120403;-66
2022/12/01 05:03:38;;;;;;;;;;;;;;;9.76;61.66;102660.94;4946992;28;118449;-66
2022/12/01 05:06:06;;;;;;;;;;;;;;;9.73;61.47;102663.63;4956267;28;124369;-66
2022/12/01 05:08:33;;;;;;;;;;;;;;;9.72;61.70;102653.94;4966003;28;124605;-66
2022/12/01 05:11:00;;;;;;;;;;;;;;;9.71;61.74;102662.75;4966492;28;120278;-66
2022/12/01 05:13:27;;;;;;;;;;;;;;;9.71;61.66;102657.47;4927276;28;120346;-66
2022/12/01 05:16:02;;;;;;;;;;;;;;;9.70;61.64;102655.69;4961315;28;124188;-66
2022/12/01 05:18:29;;;;;;;;;;;;;;;9.70;61.67;102658.34;4935393;28;124850;-66
2022/12/01 05:20:56;;;;;;;;;;;;;;;9.71;61.79;102652.19;4963723;28;119186;-66
2022/12/01 05:23:28;;;;;;;;;;;;;;;9.72;61.96;102664.53;4954453;28;120044;-66
2022/12/01 05:25:55;;;;;;;;;;;;;;;9.73;61.61;102660.97;4960136;28;124133;-67
2022/12/01 05:28:23;;;;;;;;;;;;;;;9.74;61.66;102657.44;4936473;28;124100;-66
2022/12/01 05:30:51;;;;;;;;;;;;;;;9.76;61.60;102660.94;4946237;28;119426;-66
2022/12/01 05:33:17;;;;;;;;;;;;;;;9.75;61.82;102664.47;4948487;28;118870;-66
2022/12/01 05:35:45;;;;;;;;;;;;;;;9.75;61.65;102659.19;4944435;28;124848;-67
2022/12/01 05:38:12;;;;;;;;;;;;;;;9.75;61.90;102667.13;4963386;28;123198;-68
2022/12/01 05:40:39;;;;;;;;;;;;;;;9.75;61.67;102669.75;4967100;28;118606;-68
2022/12/01 05:43:06;;;;;;;;;;;;;;;9.75;61.53;102667.13;4957406;28;119267;-68
2022/12/01 05:45:33;;;;;;;;;;;;;;;9.76;61.74;102666.22;4927487;28;123321;-68
2022/12/01 05:48:00;;;;;;;;;;;;;;;9.76;61.67;102666.22;4940173;28;124447;-68
2022/12/01 05:50:28;;;;;;;;;;;;;;;9.78;61.61;102669.72;4957806;28;119600;-69
2022/12/01 05:52:55;;;;;;;;;;;;;;;9.77;61.50;102673.25;4942448;28;120270;-68
2022/12/01 05:55:22;;;;;;;;;;;;;;;9.77;61.45;102673.25;4947839;28;124887;-67
2022/12/01 05:57:49;;;;;;;;;;;;;;;9.76;61.49;102682.09;4942503;28;124204;-67
2022/12/01 06:00:16;;;;;;;;;;;;;;;9.75;61.60;102680.34;4949249;28;120498;-67
2022/12/01 06:02:43;;;;;;;;;;;;;;;9.75;61.74;102680.34;4951580;28;120249;-67
2022/12/01 06:05:10;;;;;;;;;;;;;;;9.74;61.83;102673.31;4935869;28;124130;-67
2022/12/01 06:07:39;;;;;;;;;;;;;;;9.76;61.71;102679.47;4947362;28;123097;-68
2022/12/01 06:10:08;;;;;;;;;;;;;;;9.77;61.74;102683.84;4961569;28;120477;-68
2022/12/01 06:12:35;;;;;;;;;;;;;;;9.77;61.63;102683.84;4966345;28;119301;-67
2022/12/01 06:15:02;;;;;;;;;;;;;;;9.75;61.80;102688.28;4953012;28;123847;-68
2022/12/01 06:17:29;;;;;;;;;;;;;;;9.75;61.68;102685.63;4961092;28;124853;-69
2022/12/01 06:20:01;;;;;;;;;;;;;;;9.77;61.81;102682.97;4937559;28;121037;-68
2022/12/01 06:22:28;;;;;;;;;;;;;;;9.78;61.71;102690.03;4948042;28;117990;-69
2022/12/01 06:24:55;;;;;;;;;;;;;;;9.78;61.57;102685.59;4948477;28;123577;-68
2022/12/01 06:27:22;;;;;;;;;;;;;;;9.76;61.82;102676.81;4952818;28;124090;-68
2022/12/01 06:29:49;;;;;;;;;;;;;;;9.78;61.59;102690.91;4953854;28;119408;-66
2022/12/01 06:32:16;;;;;;;;;;;;;;;9.79;61.81;102687.34;4956758;28;118948;-68
2022/12/01 06:34:43;;;;;;;;;;;;;;;9.80;61.69;102678.53;4944482;28;125228;-68
2022/12/01 06:37:10;;;;;;;;;;;;;;;9.79;61.50;102682.06;4940395;28;125436;-68
2022/12/01 06:39:37;;;;;;;;;;;;;;;9.80;61.85;102681.19;4947363;28;119952;-68
2022/12/01 06:42:05;;;;;;;;;;;;;;;9.80;61.91;102678.53;4953594;28;118638;-68
2022/12/01 06:44:32;;;;;;;;;;;;;;;9.80;61.64;102686.47;4947636;28;123451;-68
2022/12/01 06:46:59;;;;;;;;;;;;;;;9.79;61.56;102687.34;4959187;28;123453;-68
2022/12/01 06:49:26;;;;;;;;;;;;;;;9.80;61.55;102688.25;4955380;28;120604;-68
2022/12/01 06:51:53;;;;;;;;;;;;;;;9.80;61.77;102678.53;4961537;28;119891;-67
2022/12/01 06:54:20;;;;;;;;;;;;;;;9.81;61.84;102696.13;4946729;28;124150;-68
2022/12/01 06:56:47;;;;;;;;;;;;;;;9.82;61.89;102697.91;4960250;28;123383;-68
2022/12/01 06:59:14;;;;;;;;;;;;;;;9.83;61.87;102706.72;4937679;28;119371;-68
2022/12/01 07:01:41;;;;;;;;;;;;;;;9.82;61.61;102703.19;4935106;28;119766;-68
2022/12/01 07:04:08;;;;;;;;;;;;;;;9.80;61.45;102709.41;4949228;28;124896;-68
2022/12/01 07:06:35;;;;;;;;;;;;;;;9.77;61.65;102710.31;4945570;28;124683;-68
2022/12/01 07:09:02;;;;;;;;;;;;;;;9.75;61.50;102712.09;4940685;28;118726;-68
2022/12/01 07:11:31;;;;;;;;;;;;;;;9.72;61.52;102714.78;4960517;28;118929;-68
2022/12/01 07:13:57;;;;;;;;;;;;;;;9.71;61.66;102710.38;4939821;28;124928;-68
2022/12/01 07:16:24;;;;;;;;;;;;;;;9.69;61.78;102712.19;4953980;28;124419;-68
2022/12/01 07:18:51;;;;;;;;;;;;;;;9.68;61.74;102716.59;4943062;28;120584;-67
2022/12/01 07:21:18;;;;;;;;;;;;;;;9.69;61.75;102717.47;4962274;28;118592;-68
2022/12/01 07:23:45;;;;;;;;;;;;;;;9.66;61.56;102714.84;4925864;28;125138;-68
2022/12/01 07:26:14;;;;;;;;;;;;;;;9.66;61.70;102722.78;4953333;28;124998;-68
2022/12/01 07:28:41;;;;;;;;;;;;;;;9.65;61.84;102721.03;4938176;28;121531;-68
2022/12/01 07:31:12;;;;;;;;;;;;;;;9.64;61.41;102724.56;4959645;28;118567;-68
2022/12/01 07:33:39;;;;;;;;;;;;;;;9.63;61.68;102720.19;4931439;28;123753;-68
2022/12/01 07:36:07;;;;;;;;;;;;;;;9.62;61.50;102718.41;4951031;28;124048;-68
2022/12/01 07:38:34;;;;;;;;;;;;;;;9.62;61.51;102721.06;4956216;28;120334;-68
2022/12/01 07:41:02;;;;;;;;;;;;;;;9.62;61.62;102715.78;4962581;28;119619;-68
2022/12/01 07:43:30;;;;;;;;;;;;;;;9.61;61.44;102720.19;4961190;28;123783;-68
2022/12/01 07:46:05;;;;;;;;;;;;;;;9.60;61.49;102720.22;4936624;28;124566;-67
2022/12/01 07:48:32;;;;;;;;;;;;;;;9.58;61.47;102725.50;4958106;28;120227;-68
2022/12/01 07:50:59;;;;;;;;;;;;;;;9.55;61.48;102725.56;4960758;28;119101;-68
2022/12/01 07:53:25;;;;;;;;;;;;;;;9.54;61.46;102719.38;4949883;28;124115;-68
2022/12/01 07:55:52;;;;;;;;;;;;;;;9.53;61.49;102722.94;4970902;28;124943;-68
2022/12/01 07:58:19;;;;;;;;;;;;;;;9.53;61.58;102717.63;4950901;28;120344;-67
2022/12/01 08:00:46;;;;;;;;;;;;;;;9.53;61.80;102722.94;4947428;28;120738;-68
2022/12/01 08:03:13;;;;;;;;;;;;;;;9.51;61.61;102724.72;4935305;28;125477;-68
2022/12/01 08:05:40;;;;;;;;;;;;;;;9.52;61.65;102725.59;4944504;28;124224;-68
2022/12/01 08:08:07;;;;;;;;;;;;;;;9.52;61.53;102731.75;4957058;28;118840;-68
2022/12/01 08:10:34;;;;;;;;;;;;;;;9.51;61.59;102722.06;4938814;28;122004;-68
2022/12/01 08:13:02;;;;;;;;;;;;;;;9.49;61.68;102726.50;4951899;28;124383;-68
2022/12/01 08:15:29;;;;;;;;;;;;;;;9.49;61.58;102730.88;4955048;28;123950;-68
2022/12/01 08:17:58;;;;;;;;;;;;;;;9.46;61.38;102737.09;4947992;28;120070;-67
2022/12/01 08:20:25;;;;;;;;;;;;;;;9.43;61.46;102737.13;4949732;28;118975;-68
2022/12/01 08:22:52;;;;;;;;;;;;;;;9.42;61.48;102745.06;4929661;28;125261;-68
2022/12/01 08:25:19;;;;;;;;;;;;;;;9.40;61.57;102737.16;4957872;28;124088;-68
2022/12/01 08:27:46;;;;;;;;;;;;;;;9.39;61.38;102740.69;4939491;28;121723;-68
2022/12/01 08:30:13;;;;;;;;;;;;;;;9.37;61.60;102742.47;4942819;28;120953;-68
2022/12/01 08:32:40;;;;;;;;;;;;;;;9.37;61.64;102742.47;4955101;28;124572;-68
2022/12/01 08:35:07;;;;;;;;;;;;;;;9.38;61.49;102749.53;4935384;28;124091;-68
2022/12/01 08:37:34;;;;;;;;;;;;;;;9.37;61.69;102747.75;4939168;28;121638;-70
2022/12/01 08:40:01;;;;;;;;;;;;;;;9.38;61.48;102760.13;4942107;28;118652;-69
2022/12/01 08:42:28;;;;;;;;;;;;;;;9.37;61.54;102753.06;4951517;28;124038;-68
2022/12/01 08:44:55;;;;;;;;;;;;;;;9.36;61.61;102756.56;4953736;28;123802;-69
2022/12/01 08:47:22;;;;;;;;;;;;;;;9.35;61.59;102760.13;4941911;28;119801;-68
2022/12/01 08:49:49;;;;;;;;;;;;;;;9.34;61.68;102753.06;4935162;28;118809;-68
2022/12/01 08:52:16;;;;;;;;;;;;;;;9.33;61.35;102751.34;4949491;28;124661;-68
2022/12/01 08:54:43;;;;;;;;;;;;;;;9.34;61.83;102758.34;4959739;28;123933;-71
2022/12/01 08:57:10;;;;;;;;;;;;;;;9.33;61.51;102756.63;4946241;28;119732;-68
2022/12/01 08:59:36;;;;;;;;;;;;;;;9.34;61.75;102758.34;4961484;28;118898;-67
2022/12/01 09:02:05;;;;;;;;;;;;;;;9.33;61.46;102761.91;4958296;28;124363;-68
2022/12/01 09:04:33;;;;;;;;;;;;;;;9.32;61.61;102754.84;4952074;28;124602;-67
2022/12/01 09:06:59;;;;;;;;;;;;;;;9.31;61.64;102750.47;4944630;28;119417;-68
2022/12/01 09:09:27;;;;;;;;;;;;;;;9.30;61.82;102756.63;4946885;28;118504;-68
2022/12/01 09:11:54;;;;;;;;;;;;;;;9.30;61.73;102751.34;4946301;28;124808;-68
2022/12/01 09:14:22;;;;;;;;;;;;;;;9.30;61.69;102752.22;4939701;28;124870;-68
2022/12/01 09:16:49;;;;;;;;;;;;;;;9.31;61.26;102753.13;4938016;28;121567;-68
2022/12/01 09:19:17;;;;;;;;;;;;;;;9.31;61.68;102754.00;4931614;28;120084;-68
2022/12/01 09:21:51;;;;;;;;;;;;;;;9.32;61.79;102757.50;4956202;28;124069;-68
2022/12/01 09:24:18;;;;;;;;;;;;;;;9.32;61.71;102760.16;4929290;28;122872;-68
2022/12/01 09:26:45;;;;;;;;;;;;;;;9.34;61.58;102758.34;4927492;28;119450;-68
2022/12/01 09:29:13;;;;;;;;;;;;;;;9.35;61.52;102765.41;4962065;28;118872;-68
2022/12/01 09:31:40;;;;;;;;;;;;;;;9.37;61.59;102763.63;4933905;28;124614;-69
2022/12/01 09:34:09;;;;;;;;;;;;;;;9.39;61.75;102756.56;4934318;28;123782;-68
2022/12/01 09:36:37;;;;;;;;;;;;;;;9.40;61.52;102757.44;4932880;28;120504;-68
2022/12/01 09:39:05;;;;;;;;;;;;;;;9.39;61.70;102767.13;4953501;28;118773;-68
2022/12/01 09:41:52;;;;;;;;;;;;;;;9.39;61.76;102767.13;4947603;28;125027;-68
2022/12/01 09:44:29;;;;;;;;;;;;;;;9.40;61.55;102763.63;4951047;28;123917;-68
2022/12/01 09:47:04;;;;;;;;;;;;;;;9.41;61.86;102773.28;4968206;28;118894;-68
2022/12/01 09:49:40;;;;;;;;;;;;;;;9.43;61.82;102763.56;4970601;28;118470;-68
2022/12/01 09:52:10;;;;;;;;;;;;;;;9.46;61.86;102766.19;4949599;28;124115;-68
2022/12/01 09:54:37;;;;;;;;;;;;;;;9.48;61.93;102764.41;4931546;28;125312;-68
2022/12/01 09:57:04;;;;;;;;;;;;;;;9.53;61.86;102765.25;4935244;28;120155;-68
2022/12/01 09:59:34;;;;;;;;;;;;;;;9.59;61.74;102763.41;4940220;28;118800;-68
2022/12/01 10:02:05;;;;;;;;;;;;;;;9.62;61.88;102758.09;4949015;28;124416;-68
2022/12/01 10:04:38;;;;;;;;;;;;;;;9.66;61.73;102743.94;4948495;28;123799;-68
2022/12/01 10:07:14;;;;;;;;;;;;;;;9.70;61.73;102750.94;4939477;28;121462;-68
2022/12/01 10:09:48;;;;;;;;;;;;;;;9.76;61.90;102750.91;4948190;28;120943;-68
2022/12/01 10:12:17;;;;;;;;;;;;;;;9.81;62.08;102743.78;4932499;28;123851;-68
2022/12/01 10:14:45;;;;;;;;;;;;;;;9.85;61.73;102744.63;4951816;28;124764;-68
2022/12/01 10:17:18;;;;;;;;;;;;;;;9.88;61.81;102744.59;4950125;28;119741;-68
2022/12/01 10:19:45;;;;;;;;;;;;;;;9.90;61.65;102740.16;4935133;28;118301;-68
2022/12/01 10:22:28;;;;;;;;;;;;;;;9.94;61.75;102745.41;4936079;28;123966;-68
2022/12/01 10:25:14;;;;;;;;;;;;;;;10.00;61.68;102738.28;4940475;28;122292;-68
2022/12/01 10:27:53;;;;;;;;;;;;;;;10.05;61.88;102736.44;4932431;28;117573;-68
2022/12/01 10:30:22;;;;;;;;;;;;;;;10.11;62.07;102741.66;4948889;28;120013;-68
2022/12/01 10:33:09;;;;;;;;;;;;;;;10.16;61.75;102731.91;4945666;28;124674;-68
2022/12/01 10:35:36;;;;;;;;;;;;;;;10.21;61.69;102730.06;4951991;28;123671;-68
2022/12/01 10:38:05;;;;;;;;;;;;;;;10.24;61.76;102732.66;4964209;28;119319;-68
2022/12/01 10:40:34;;;;;;;;;;;;;;;10.28;61.65;102729.09;4953797;28;118526;-68
2022/12/01 10:43:01;;;;;;;;;;;;;;;10.31;61.58;102731.72;4953156;28;125838;-68
2022/12/01 10:45:30;;;;;;;;;;;;;;;10.35;61.48;102729.03;4951359;28;122815;-68
2022/12/01 10:48:14;;;;;;;;;;;;;;;10.36;61.56;102722.84;4937591;28;118962;-68
2022/12/01 10:50:42;;;;;;;;;;;;;;;10.38;61.63;102723.69;4941708;28;118654;-68
2022/12/01 10:53:38;;;;;;;;;;;;;;;10.40;61.58;102728.09;4956937;28;123018;-69
2022/12/01 10:56:11;;;;;;;;;;;;;;;10.46;61.60;102732.41;4917316;28;123733;-68
2022/12/01 10:58:45;;;;;;;;;;;;;;;10.49;61.65;102721.75;4955537;28;118700;-68
2022/12/01 11:01:33;;;;;;;;;;;;;;;10.53;61.52;102726.13;4947417;28;120060;-68
2022/12/01 11:04:20;;;;;;;;;;;;;;;10.56;61.66;102718.13;4939845;28;124954;-68
2022/12/01 11:06:50;;;;;;;;;;;;;;;10.60;61.46;102718.97;4954356;28;123932;-68
2022/12/01 11:09:22;;;;;;;;;;;;;;;10.63;61.36;102719.78;4969241;28;119810;-68
2022/12/01 11:12:02;;;;;;;;;;;;;;;10.63;61.47;102714.50;4946790;28;119231;-68
2022/12/01 11:14:40;;;;;;;;;;;;;;;10.65;61.34;102715.34;4946845;28;125832;-68
2022/12/01 11:17:16;;;;;;;;;;;;;;;10.68;61.45;102712.66;4963856;28;123868;-68
2022/12/01 11:19:42;;;;;;;;;;;;;;;10.73;61.38;102717.00;4954956;28;120274;-69
2022/12/01 11:22:27;;;;;;;;;;;;;;;10.78;61.58;102712.53;4958417;28;118901;-68
2022/12/01 11:24:59;;;;;;;;;;;;;;;10.82;61.37;102708.91;4964750;28;125318;-67
2022/12/01 11:27:32;;;;;;;;;;;;;;;10.84;61.21;102707.09;4957885;28;123722;-68
2022/12/01 11:30:14;;;;;;;;;;;;;;;10.84;61.56;102712.41;4939902;28;118825;-68
2022/12/01 11:32:49;;;;;;;;;;;;;;;10.84;61.20;102707.09;4949283;28;119904;-68
2022/12/01 11:35:21;;;;;;;;;;;;;;;10.85;61.09;102703.53;4962354;28;124696;-68
2022/12/01 11:37:53;;;;;;;;;;;;;;;10.85;61.16;102698.25;4940645;28;124634;-68
2022/12/01 11:40:48;;;;;;;;;;;;;;;10.89;61.22;102694.66;4961680;28;120287;-68
2022/12/01 11:43:35;;;;;;;;;;;;;;;10.90;61.30;102699.06;4941955;28;119239;-68
2022/12/01 11:46:04;;;;;;;;;;;;;;;10.91;61.26;102687.56;4957529;28;124689;-68
2022/12/01 11:48:33;;;;;;;;;;;;;;;10.95;61.32;102693.69;4952545;28;125391;-68
2022/12/01 11:51:05;;;;;;;;;;;;;;;10.96;61.27;102690.97;4956150;28;120598;-68
2022/12/01 11:53:36;;;;;;;;;;;;;;;10.99;61.06;102701.56;4962227;28;120264;-68
2022/12/01 11:56:13;;;;;;;;;;;;;;;11.03;61.21;102697.06;4941823;28;123237;-70
2022/12/01 11:58:40;;;;;;;;;;;;;;;11.07;61.03;102694.31;4951511;28;124309;-69
2022/12/01 12:01:16;;;;;;;;;;;;;;;11.09;61.04;102687.25;4938058;28;119425;-68
2022/12/01 12:03:58;;;;;;;;;;;;;;;11.09;60.83;102686.34;4943527;28;119035;-71
2022/12/01 12:06:43;;;;;;;;;;;;;;;11.07;60.81;102689.03;4945395;28;123485;-69
2022/12/01 12:09:21;;;;;;;;;;;;;;;11.07;60.82;102689.03;4959301;28;125008;-68
2022/12/01 12:12:14;;;;;;;;;;;;;;;11.07;60.89;102681.06;4956822;28;119371;-69
2022/12/01 12:14:41;;;;;;;;;;;;;;;11.07;60.81;102673.13;4956196;28;118333;-69
2022/12/01 12:17:18;;;;;;;;;;;;;;;11.07;60.74;102678.41;4958588;28;124294;-68
2022/12/01 12:20:04;;;;;;;;;;;;;;;11.07;60.60;102673.13;4941729;28;125008;-69
2022/12/01 12:22:51;;;;;;;;;;;;;;;11.08;60.74;102668.72;4971476;28;118896;-69
2022/12/01 12:25:39;;;;;;;;;;;;;;;11.09;60.58;102668.69;4951581;28;119791;-70
2022/12/01 12:28:22;;;;;;;;;;;;;;;11.11;60.69;102660.69;4940823;28;125438;-68
2022/12/01 12:31:12;;;;;;;;;;;;;;;11.13;60.79;102655.34;4955672;28;124402;-68
2022/12/01 12:34:02;;;;;;;;;;;;;;;11.15;60.70;102664.16;4929307;28;119936;-69
2022/12/01 12:36:49;;;;;;;;;;;;;;;11.18;60.86;102661.47;4960071;28;118712;-69
2022/12/01 12:39:28;;;;;;;;;;;;;;;11.20;60.84;102662.31;4955842;28;124722;-68
2022/12/01 12:41:55;;;;;;;;;;;;;;;11.22;60.46;102655.19;4934486;28;124649;-68
2022/12/01 12:44:29;;;;;;;;;;;;;;;11.23;60.42;102664.91;4937153;28;120705;-68
2022/12/01 12:47:03;;;;;;;;;;;;;;;11.23;60.21;102662.25;4946162;28;119677;-68
2022/12/01 12:49:42;;;;;;;;;;;;;;;11.23;60.48;102656.94;4939490;28;124927;-68
2022/12/01 12:52:17;;;;;;;;;;;;;;;11.25;60.52;102653.34;4946869;28;123892;-68
2022/12/01 12:54:53;;;;;;;;;;;;;;;11.28;60.54;102655.06;4958488;28;119475;-68
2022/12/01 12:57:25;;;;;;;;;;;;;;;11.28;60.28;102649.75;4944013;28;118791;-68
2022/12/01 13:00:27;;;;;;;;;;;;;;;11.27;60.40;102648.03;4956522;28;123998;-68